Terminal Aerodrome Forecast
Issued by NWS Pueblo, CO

Home | Current Version | Previous Version | Text Only | Print | Product List | Glossary On
Versions: 1 2 3 4 5 6 7 8 9 10 11 12 13 14 15 16 17 18 19 20
000
FTUS45 KPUB 250520
TAFPUB
TAF
KPUB 250520Z 2506/2606 34006KT P6SM FEW250
     FM251600 14008KT P6SM SCT250
     FM252000 21014G24KT P6SM FEW150 SCT250
     FM260200 24012KT P6SM SCT120 SCT200=

USA.gov is the U.S. government's official web portal to all federal, state and local government web resources and services.